Time;durP1;ratioP1;P1;durP2;ratioP2;P2;SDS_P1;SDS_P2;PMS_P1;PMS_P2;Temp;Humidity;BMP_temperature;BMP_pressure;BME280_temperature;BME280_humidity;BME280_pressure;Samples;Min_cycle;Max_cycle;Signal;HPM_P1;HPM_P2
2023/09/29 00:00:14;;;;;;;;;;;;;;;;;;5072413;28;19916;-60
2023/09/29 00:02:40;;;;;;;;;;;;;;;;;;5072453;28;19959;-60
2023/09/29 00:05:05;;;;;;;;;;;;;;;;;;5072368;28;19940;-61
2023/09/29 00:07:31;;;;;;;;;;;;;;;;;;5072487;28;19920;-60
2023/09/29 00:09:56;;;;;;;;;;;;;;;;;;5083576;28;20292;-60
2023/09/29 00:12:21;;;;;;;;;;;;;;;;;;5113084;28;20305;-60
2023/09/29 00:14:47;;;;;;;;;;;;;;;;;;5112857;28;20437;-60
2023/09/29 00:17:13;;;;;;;;;;;;;;;;;;5112917;28;19916;-61
2023/09/29 00:19:38;;;;;;;;;;;;;;;;;;5110760;28;19923;-60
2023/09/29 00:22:04;;;;;;;;;;;;;;;;;;5112882;28;19915;-61
2023/09/29 00:24:29;;;;;;;;;;;;;;;;;;5111178;28;19916;-61
2023/09/29 00:26:54;;;;;;;;;;;;;;;;;;5111549;28;19908;-61
2023/09/29 00:29:20;;;;;;;;;;;;;;;;;;5112279;28;19928;-60
2023/09/29 00:31:45;;;;;;;;;;;;;;;;;;5111246;28;19919;-60
2023/09/29 00:34:11;;;;;;;;;;;;;;;;;;5109588;28;19916;-60
2023/09/29 00:36:36;;;;;;;;;;;;;;;;;;5090972;28;19919;-60
2023/09/29 00:39:04;;;;;;;;;;;;;;;;;;5091469;28;19923;-60
2023/09/29 00:41:29;;;;;;;;;;;;;;;;;;5090409;28;20376;-62
2023/09/29 00:43:55;;;;;;;;;;;;;;;;;;5090392;28;19923;-59
2023/09/29 00:46:20;;;;;;;;;;;;;;;;;;5090790;28;20428;-60
2023/09/29 00:48:45;;;;;;;;;;;;;;;;;;5091784;28;19924;-59
2023/09/29 00:51:11;;;;;;;;;;;;;;;;;;5091910;28;19916;-60
2023/09/29 00:53:38;;;;;;;;;;;;;;;;;;5073697;28;19922;-61
2023/09/29 00:56:03;;;;;;;;;;;;;;;;;;5091687;28;19938;-60
2023/09/29 00:58:29;;;;;;;;;;;;;;;;;;5091871;28;20396;-60
2023/09/29 01:00:54;;;;;;;;;;;;;;;;;;5092109;28;19908;-60
2023/09/29 01:03:20;;;;;;;;;;;;;;;;;;5092312;28;19919;-61
2023/09/29 01:05:46;;;;;;;;;;;;;;;;;;5091882;28;20300;-60
2023/09/29 01:08:12;;;;;;;;;;;;;;;;;;5092102;28;19920;-61
2023/09/29 01:10:38;;;;;;;;;;;;;;;;;;5101787;28;20027;-61
2023/09/29 01:13:03;;;;;;;;;;;;;;;;;;5110269;28;19911;-61
2023/09/29 01:15:29;;;;;;;;;;;;;;;;;;5111456;28;20288;-61
2023/09/29 01:17:54;;;;;;;;;;;;;;;;;;5110927;28;20277;-60
2023/09/29 01:20:34;;;;;;;;;;;;;;;;;;5112141;28;19916;-61
2023/09/29 01:23:07;;;;;;;;;;;;;;;;;;5111449;28;19933;-59
2023/09/29 01:25:32;;;;;;;;;;;;;;;;;;5111935;28;19926;-61
2023/09/29 01:27:58;;;;;;;;;;;;;;;;;;5109688;28;19919;-60
2023/09/29 01:30:25;;;;;;;;;;;;;;;;;;5110565;28;19912;-61
2023/09/29 01:32:50;;;;;;;;;;;;;;;;;;5095196;28;20382;-60
2023/09/29 01:35:23;;;;;;;;;;;;;;;;;;5078700;28;19924;-61
2023/09/29 01:37:49;;;;;;;;;;;;;;;;;;5079560;28;19918;-61
2023/09/29 01:40:14;;;;;;;;;;;;;;;;;;5080558;28;20365;-60
2023/09/29 01:42:40;;;;;;;;;;;;;;;;;;5078413;28;19926;-60
2023/09/29 01:45:08;;;;;;;;;;;;;;;;;;5081330;28;19966;-61
2023/09/29 01:47:34;;;;;;;;;;;;;;;;;;5080268;28;20377;-60
2023/09/29 01:50:00;;;;;;;;;;;;;;;;;;5079948;28;19922;-61
2023/09/29 01:52:26;;;;;;;;;;;;;;;;;;5081455;28;19948;-59
2023/09/29 01:54:51;;;;;;;;;;;;;;;;;;5082843;28;19962;-60
2023/09/29 01:57:16;;;;;;;;;;;;;;;;;;5082170;28;19912;-60
2023/09/29 01:59:42;;;;;;;;;;;;;;;;;;5078798;28;19970;-61
2023/09/29 02:02:07;;;;;;;;;;;;;;;;;;5056815;28;19916;-61
2023/09/29 02:04:34;;;;;;;;;;;;;;;;;;5073658;28;19962;-60
2023/09/29 02:07:00;;;;;;;;;;;;;;;;;;5074848;28;20007;-58
2023/09/29 02:09:26;;;;;;;;;;;;;;;;;;5075936;28;20134;-60
2023/09/29 02:11:54;;;;;;;;;;;;;;;;;;5093585;28;19919;-60
2023/09/29 02:14:20;;;;;;;;;;;;;;;;;;5095028;28;19920;-60
2023/09/29 02:16:50;;;;;;;;;;;;;;;;;;5093728;28;19964;-61
2023/09/29 02:19:16;;;;;;;;;;;;;;;;;;5093364;28;20369;-61
2023/09/29 02:21:41;;;;;;;;;;;;;;;;;;5093376;28;19919;-61
2023/09/29 02:24:27;;;;;;;;;;;;;;;;;;5094261;28;19916;-60
2023/09/29 02:26:52;;;;;;;;;;;;;;;;;;5093404;28;20011;-61
2023/09/29 02:29:18;;;;;;;;;;;;;;;;;;5094649;28;19931;-60
2023/09/29 02:31:43;;;;;;;;;;;;;;;;;;5093154;28;19912;-60
2023/09/29 02:34:09;;;;;;;;;;;;;;;;;;5076251;28;20363;-60
2023/09/29 02:36:36;;;;;;;;;;;;;;;;;;5093220;28;20440;-59
2023/09/29 02:39:03;;;;;;;;;;;;;;;;;;5094215;28;19923;-60
2023/09/29 02:41:29;;;;;;;;;;;;;;;;;;5093902;28;19918;-62
2023/09/29 02:43:54;;;;;;;;;;;;;;;;;;5094067;28;19916;-60
2023/09/29 02:46:20;;;;;;;;;;;;;;;;;;5094163;28;19912;-62
2023/09/29 02:48:48;;;;;;;;;;;;;;;;;;5092689;28;20381;-59
2023/09/29 02:51:15;;;;;;;;;;;;;;;;;;5094009;28;19916;-60
2023/09/29 02:53:43;;;;;;;;;;;;;;;;;;5094001;28;20003;-59
2023/09/29 02:56:12;;;;;;;;;;;;;;;;;;5093947;28;19955;-60
2023/09/29 02:58:37;;;;;;;;;;;;;;;;;;5093695;28;19970;-60
2023/09/29 03:01:02;;;;;;;;;;;;;;;;;;5092889;28;19959;-60
2023/09/29 03:03:28;;;;;;;;;;;;;;;;;;5092460;28;19916;-59
2023/09/29 03:05:53;;;;;;;;;;;;;;;;;;5093101;28;19980;-60
2023/09/29 03:08:18;;;;;;;;;;;;;;;;;;5094090;28;20367;-59
2023/09/29 03:10:44;;;;;;;;;;;;;;;;;;5105856;28;20379;-60
2023/09/29 03:13:09;;;;;;;;;;;;;;;;;;5113845;28;19912;-60
2023/09/29 03:15:35;;;;;;;;;;;;;;;;;;5114239;28;19969;-61
2023/09/29 03:18:01;;;;;;;;;;;;;;;;;;5114320;28;20022;-58
2023/09/29 03:20:27;;;;;;;;;;;;;;;;;;5112770;28;20009;-61
2023/09/29 03:22:54;;;;;;;;;;;;;;;;;;5096005;28;19911;-60
2023/09/29 03:25:20;;;;;;;;;;;;;;;;;;5112465;28;19918;-60
2023/09/29 03:27:46;;;;;;;;;;;;;;;;;;5113564;28;19919;-62
2023/09/29 03:30:11;;;;;;;;;;;;;;;;;;5113528;28;19941;-61
2023/09/29 03:32:37;;;;;;;;;;;;;;;;;;5112342;28;19912;-60
2023/09/29 03:35:04;;;;;;;;;;;;;;;;;;5113576;28;20009;-61
2023/09/29 03:37:30;;;;;;;;;;;;;;;;;;5113698;28;19918;-60
2023/09/29 03:39:56;;;;;;;;;;;;;;;;;;5113769;28;19920;-59
2023/09/29 03:42:21;;;;;;;;;;;;;;;;;;5115031;27;20060;-60
2023/09/29 03:44:47;;;;;;;;;;;;;;;;;;5113264;28;19923;-60
2023/09/29 03:47:12;;;;;;;;;;;;;;;;;;5113292;28;19922;-60
2023/09/29 03:49:38;;;;;;;;;;;;;;;;;;5113672;28;19923;-60
2023/09/29 03:52:06;;;;;;;;;;;;;;;;;;5113057;28;19912;-60
2023/09/29 03:54:31;;;;;;;;;;;;;;;;;;5111691;28;19923;-61
2023/09/29 03:56:57;;;;;;;;;;;;;;;;;;5113225;28;19911;-60
2023/09/29 03:59:24;;;;;;;;;;;;;;;;;;5113230;28;20397;-59
2023/09/29 04:01:49;;;;;;;;;;;;;;;;;;5111646;28;20017;-59
2023/09/29 04:04:14;;;;;;;;;;;;;;;;;;5112882;28;19984;-60
2023/09/29 04:06:40;;;;;;;;;;;;;;;;;;5113117;28;20413;-61
2023/09/29 04:09:05;;;;;;;;;;;;;;;;;;5112545;28;19953;-60
2023/09/29 04:11:31;;;;;;;;;;;;;;;;;;5112665;28;20002;-59
2023/09/29 04:13:56;;;;;;;;;;;;;;;;;;5110786;28;20512;-58
2023/09/29 04:16:21;;;;;;;;;;;;;;;;;;5111144;28;19934;-60
2023/09/29 04:18:47;;;;;;;;;;;;;;;;;;5112589;28;19915;-61
2023/09/29 04:21:14;;;;;;;;;;;;;;;;;;5112656;28;19916;-62
2023/09/29 04:23:40;;;;;;;;;;;;;;;;;;5111902;28;19922;-60
2023/09/29 04:26:05;;;;;;;;;;;;;;;;;;5111074;28;19911;-63
2023/09/29 04:28:30;;;;;;;;;;;;;;;;;;5112230;28;19931;-61
2023/09/29 04:30:55;;;;;;;;;;;;;;;;;;5112365;28;19912;-63
2023/09/29 04:33:21;;;;;;;;;;;;;;;;;;5111120;28;19912;-59
2023/09/29 04:35:46;;;;;;;;;;;;;;;;;;5112250;28;19922;-61
2023/09/29 04:38:12;;;;;;;;;;;;;;;;;;5094275;28;19916;-63
2023/09/29 04:40:37;;;;;;;;;;;;;;;;;;5075527;28;19916;-62
2023/09/29 04:43:03;;;;;;;;;;;;;;;;;;5071908;28;19925;-62
2023/09/29 04:45:28;;;;;;;;;;;;;;;;;;5080515;28;19923;-61
2023/09/29 04:47:54;;;;;;;;;;;;;;;;;;5080959;28;19920;-62
2023/09/29 04:50:19;;;;;;;;;;;;;;;;;;5080312;28;19920;-63
2023/09/29 04:52:45;;;;;;;;;;;;;;;;;;5081136;28;19996;-62
2023/09/29 04:55:10;;;;;;;;;;;;;;;;;;5063962;28;20306;-64
2023/09/29 04:57:36;;;;;;;;;;;;;;;;;;5080261;28;20297;-63
2023/09/29 05:00:02;;;;;;;;;;;;;;;;;;5080017;28;20482;-64
2023/09/29 05:02:30;;;;;;;;;;;;;;;;;;5081463;28;19919;-62
2023/09/29 05:04:55;;;;;;;;;;;;;;;;;;5080047;28;19999;-60
2023/09/29 05:07:20;;;;;;;;;;;;;;;;;;5081594;28;19915;-63
2023/09/29 05:09:48;;;;;;;;;;;;;;;;;;5086068;28;19922;-62
2023/09/29 05:12:14;;;;;;;;;;;;;;;;;;5078664;28;20015;-62
2023/09/29 05:14:40;;;;;;;;;;;;;;;;;;5080315;28;19989;-64
2023/09/29 05:17:06;;;;;;;;;;;;;;;;;;5078070;28;19913;-64
2023/09/29 05:19:31;;;;;;;;;;;;;;;;;;5079986;28;20015;-62
2023/09/29 05:21:56;;;;;;;;;;;;;;;;;;5076851;28;20004;-63
2023/09/29 05:24:22;;;;;;;;;;;;;;;;;;5070897;28;19921;-60
2023/09/29 05:26:47;;;;;;;;;;;;;;;;;;5071284;28;19919;-62
2023/09/29 05:29:12;;;;;;;;;;;;;;;;;;5073232;28;19928;-62
2023/09/29 05:31:38;;;;;;;;;;;;;;;;;;5075100;28;19912;-62
2023/09/29 05:34:03;;;;;;;;;;;;;;;;;;5074950;28;19924;-62
2023/09/29 05:36:29;;;;;;;;;;;;;;;;;;5075163;28;19912;-62
2023/09/29 05:38:55;;;;;;;;;;;;;;;;;;5075209;28;19919;-62
2023/09/29 05:41:20;;;;;;;;;;;;;;;;;;5074949;28;20369;-63
2023/09/29 05:43:45;;;;;;;;;;;;;;;;;;5076991;28;20306;-62
2023/09/29 05:46:11;;;;;;;;;;;;;;;;;;5085221;28;19919;-62
2023/09/29 05:48:36;;;;;;;;;;;;;;;;;;5084072;28;19946;-62
2023/09/29 05:51:01;;;;;;;;;;;;;;;;;;5086484;28;19908;-62
2023/09/29 05:53:27;;;;;;;;;;;;;;;;;;5083609;28;19916;-61
2023/09/29 05:55:52;;;;;;;;;;;;;;;;;;5085988;28;19919;-60
2023/09/29 05:58:18;;;;;;;;;;;;;;;;;;5083036;28;19918;-61
2023/09/29 06:00:45;;;;;;;;;;;;;;;;;;5082380;28;19962;-60
2023/09/29 06:03:11;;;;;;;;;;;;;;;;;;5063322;28;19912;-61
2023/09/29 06:05:36;;;;;;;;;;;;;;;;;;5082099;28;19911;-61
2023/09/29 06:08:04;;;;;;;;;;;;;;;;;;5082712;28;20031;-60
2023/09/29 06:10:29;;;;;;;;;;;;;;;;;;5089475;28;20357;-60
2023/09/29 06:13:00;;;;;;;;;;;;;;;;;;5081877;28;19916;-61
2023/09/29 06:15:26;;;;;;;;;;;;;;;;;;5086018;28;20494;-61
2023/09/29 06:17:54;;;;;;;;;;;;;;;;;;5083307;28;19918;-59
2023/09/29 06:20:19;;;;;;;;;;;;;;;;;;5091134;28;19963;-60
2023/09/29 06:22:45;;;;;;;;;;;;;;;;;;5094071;28;19951;-62
2023/09/29 06:25:10;;;;;;;;;;;;;;;;;;5093919;28;19916;-62
2023/09/29 06:27:36;;;;;;;;;;;;;;;;;;5092849;28;19912;-61
2023/09/29 06:30:01;;;;;;;;;;;;;;;;;;5094182;28;19961;-61
2023/09/29 06:32:27;;;;;;;;;;;;;;;;;;5094228;28;19964;-61
2023/09/29 06:34:52;;;;;;;;;;;;;;;;;;5089052;28;19927;-61
2023/09/29 06:37:18;;;;;;;;;;;;;;;;;;5073752;28;19912;-60
2023/09/29 06:39:43;;;;;;;;;;;;;;;;;;5072274;28;19916;-62
2023/09/29 06:42:09;;;;;;;;;;;;;;;;;;5073129;28;19912;-61
2023/09/29 06:44:34;;;;;;;;;;;;;;;;;;5073736;28;19931;-63
2023/09/29 06:47:00;;;;;;;;;;;;;;;;;;5073525;28;19957;-63
2023/09/29 06:49:25;;;;;;;;;;;;;;;;;;5073508;28;19924;-62
2023/09/29 06:51:50;;;;;;;;;;;;;;;;;;5073278;28;19918;-60
2023/09/29 06:54:16;;;;;;;;;;;;;;;;;;5073275;28;19923;-61
2023/09/29 06:56:41;;;;;;;;;;;;;;;;;;5073565;28;19913;-60
2023/09/29 06:59:07;;;;;;;;;;;;;;;;;;5073166;28;19960;-62
2023/09/29 07:01:33;;;;;;;;;;;;;;;;;;5073783;28;20321;-61
2023/09/29 07:03:58;;;;;;;;;;;;;;;;;;5072911;28;19920;-61
2023/09/29 07:06:24;;;;;;;;;;;;;;;;;;5073262;28;19919;-59
2023/09/29 07:08:49;;;;;;;;;;;;;;;;;;5072862;28;19924;-61
2023/09/29 07:11:15;;;;;;;;;;;;;;;;;;5088345;28;19919;-62
2023/09/29 07:13:40;;;;;;;;;;;;;;;;;;5077008;28;19936;-61
2023/09/29 07:16:06;;;;;;;;;;;;;;;;;;5077888;28;19919;-60
2023/09/29 07:18:31;;;;;;;;;;;;;;;;;;5082888;28;19939;-61
2023/09/29 07:20:56;;;;;;;;;;;;;;;;;;5081621;28;19908;-63
2023/09/29 07:23:22;;;;;;;;;;;;;;;;;;5082604;28;19916;-61
2023/09/29 07:25:47;;;;;;;;;;;;;;;;;;5082433;28;19938;-62
2023/09/29 07:28:19;;;;;;;;;;;;;;;;;;5082221;28;19982;-61
2023/09/29 07:30:44;;;;;;;;;;;;;;;;;;5083150;28;19940;-62
2023/09/29 07:33:10;;;;;;;;;;;;;;;;;;5081819;28;19985;-62
2023/09/29 07:35:35;;;;;;;;;;;;;;;;;;5082322;28;20027;-60
2023/09/29 07:38:00;;;;;;;;;;;;;;;;;;5080188;28;20010;-61
2023/09/29 07:40:26;;;;;;;;;;;;;;;;;;5081404;28;19927;-62
2023/09/29 07:42:51;;;;;;;;;;;;;;;;;;5079496;28;19920;-62
2023/09/29 07:45:17;;;;;;;;;;;;;;;;;;5083033;28;19916;-61
2023/09/29 07:47:42;;;;;;;;;;;;;;;;;;5081403;28;19939;-61
2023/09/29 07:50:08;;;;;;;;;;;;;;;;;;5073766;28;19916;-62
2023/09/29 07:52:37;;;;;;;;;;;;;;;;;;5078211;28;19912;-61
2023/09/29 07:55:02;;;;;;;;;;;;;;;;;;5090124;28;19938;-62
2023/09/29 07:57:28;;;;;;;;;;;;;;;;;;5092637;28;20003;-61
2023/09/29 07:59:54;;;;;;;;;;;;;;;;;;5091419;28;19923;-63
2023/09/29 08:02:19;;;;;;;;;;;;;;;;;;5092032;28;19959;-63
2023/09/29 08:04:44;;;;;;;;;;;;;;;;;;5092269;28;19918;-61
2023/09/29 08:07:11;;;;;;;;;;;;;;;;;;5092058;28;19998;-62
2023/09/29 08:09:37;;;;;;;;;;;;;;;;;;5092128;28;19973;-62
2023/09/29 08:12:02;;;;;;;;;;;;;;;;;;5090130;28;20338;-61
2023/09/29 08:14:27;;;;;;;;;;;;;;;;;;5072259;28;19974;-65
2023/09/29 08:16:53;;;;;;;;;;;;;;;;;;5070229;28;19979;-61
2023/09/29 08:19:18;;;;;;;;;;;;;;;;;;5071836;28;20029;-61
2023/09/29 08:21:44;;;;;;;;;;;;;;;;;;5071992;28;19923;-61
2023/09/29 08:24:09;;;;;;;;;;;;;;;;;;5071420;28;20389;-63
2023/09/29 08:26:34;;;;;;;;;;;;;;;;;;5071813;28;19912;-62
2023/09/29 08:29:00;;;;;;;;;;;;;;;;;;5071372;28;19931;-62
2023/09/29 08:31:25;;;;;;;;;;;;;;;;;;5070453;28;19966;-63
2023/09/29 08:33:50;;;;;;;;;;;;;;;;;;5071001;28;19962;-64
2023/09/29 08:36:16;;;;;;;;;;;;;;;;;;5079081;28;19912;-63
2023/09/29 08:38:41;;;;;;;;;;;;;;;;;;5091662;28;20301;-63
2023/09/29 08:41:08;;;;;;;;;;;;;;;;;;5091803;28;19951;-63
2023/09/29 08:43:33;;;;;;;;;;;;;;;;;;5091083;28;19967;-60
2023/09/29 08:45:59;;;;;;;;;;;;;;;;;;5091421;28;19966;-60
2023/09/29 08:48:24;;;;;;;;;;;;;;;;;;5091221;28;19969;-62
2023/09/29 08:50:55;;;;;;;;;;;;;;;;;;5091501;28;19935;-62
2023/09/29 08:53:20;;;;;;;;;;;;;;;;;;5091867;28;19935;-61
2023/09/29 08:55:46;;;;;;;;;;;;;;;;;;5091681;28;20393;-60
2023/09/29 08:58:11;;;;;;;;;;;;;;;;;;5090731;28;19918;-62
2023/09/29 09:00:38;;;;;;;;;;;;;;;;;;5091384;28;19916;-60
2023/09/29 09:03:03;;;;;;;;;;;;;;;;;;5090849;28;19927;-60
2023/09/29 09:05:29;;;;;;;;;;;;;;;;;;5091675;28;20305;-61
2023/09/29 09:07:54;;;;;;;;;;;;;;;;;;5091495;28;20357;-61
2023/09/29 09:10:20;;;;;;;;;;;;;;;;;;5100513;28;19944;-62
2023/09/29 09:12:45;;;;;;;;;;;;;;;;;;5095222;28;20007;-61
2023/09/29 09:15:13;;;;;;;;;;;;;;;;;;5071269;28;19913;-62
2023/09/29 09:17:38;;;;;;;;;;;;;;;;;;5071189;28;19913;-62
2023/09/29 09:20:04;;;;;;;;;;;;;;;;;;5071705;28;19916;-63
2023/09/29 09:22:38;;;;;;;;;;;;;;;;;;5071168;28;20005;-62
2023/09/29 09:25:04;;;;;;;;;;;;;;;;;;5071557;28;20334;-60
2023/09/29 09:27:30;;;;;;;;;;;;;;;;;;5069674;28;19912;-60
2023/09/29 09:29:55;;;;;;;;;;;;;;;;;;5070029;28;20382;-61
2023/09/29 09:32:21;;;;;;;;;;;;;;;;;;5071038;28;20294;-61
2023/09/29 09:34:46;;;;;;;;;;;;;;;;;;5069900;28;19916;-61
2023/09/29 09:37:12;;;;;;;;;;;;;;;;;;5069686;28;19953;-61
2023/09/29 09:39:38;;;;;;;;;;;;;;;;;;5071248;28;19912;-62
2023/09/29 09:42:05;;;;;;;;;;;;;;;;;;5078371;28;19919;-60
2023/09/29 09:44:33;;;;;;;;;;;;;;;;;;5070968;28;19924;-61
2023/09/29 09:47:04;;;;;;;;;;;;;;;;;;5069472;28;20003;-62
2023/09/29 09:49:30;;;;;;;;;;;;;;;;;;5070982;28;20359;-66
2023/09/29 09:51:55;;;;;;;;;;;;;;;;;;5071108;28;20011;-60
2023/09/29 09:54:20;;;;;;;;;;;;;;;;;;5070765;28;19962;-61
2023/09/29 09:56:47;;;;;;;;;;;;;;;;;;5070841;28;19908;-61
2023/09/29 09:59:13;;;;;;;;;;;;;;;;;;5080085;28;19923;-63
2023/09/29 10:01:39;;;;;;;;;;;;;;;;;;5091346;28;19908;-62
2023/09/29 10:04:06;;;;;;;;;;;;;;;;;;5090646;28;19923;-61
2023/09/29 10:06:31;;;;;;;;;;;;;;;;;;5089765;28;19927;-60
2023/09/29 10:08:57;;;;;;;;;;;;;;;;;;5090690;28;19950;-62
2023/09/29 10:11:23;;;;;;;;;;;;;;;;;;5108510;28;19911;-62
2023/09/29 10:13:50;;;;;;;;;;;;;;;;;;5077694;28;20324;-62
2023/09/29 10:16:15;;;;;;;;;;;;;;;;;;5073954;28;20452;-61
2023/09/29 10:18:40;;;;;;;;;;;;;;;;;;5073538;28;19951;-60
2023/09/29 10:21:06;;;;;;;;;;;;;;;;;;5073018;28;20381;-61
2023/09/29 10:23:31;;;;;;;;;;;;;;;;;;5073582;28;19916;-60
2023/09/29 10:26:00;;;;;;;;;;;;;;;;;;5073926;28;19965;-62
2023/09/29 10:28:25;;;;;;;;;;;;;;;;;;5074084;28;19930;-62
2023/09/29 10:30:51;;;;;;;;;;;;;;;;;;5072571;28;20011;-61
2023/09/29 10:33:16;;;;;;;;;;;;;;;;;;5074461;28;19913;-61
2023/09/29 10:35:44;;;;;;;;;;;;;;;;;;5073534;28;19938;-62
2023/09/29 10:38:12;;;;;;;;;;;;;;;;;;5074339;28;19959;-62
2023/09/29 10:40:37;;;;;;;;;;;;;;;;;;5073535;28;20007;-62
2023/09/29 10:43:03;;;;;;;;;;;;;;;;;;5073342;28;20048;-60
2023/09/29 10:45:29;;;;;;;;;;;;;;;;;;5073830;28;20194;-61
2023/09/29 10:47:54;;;;;;;;;;;;;;;;;;5073952;28;19980;-62
2023/09/29 10:50:19;;;;;;;;;;;;;;;;;;5073502;28;19912;-61
2023/09/29 10:52:45;;;;;;;;;;;;;;;;;;5074041;28;19912;-61
2023/09/29 10:55:10;;;;;;;;;;;;;;;;;;5072839;28;20018;-61
2023/09/29 10:57:36;;;;;;;;;;;;;;;;;;5073820;28;19919;-60
2023/09/29 11:00:01;;;;;;;;;;;;;;;;;;5073394;28;19917;-61
2023/09/29 11:02:30;;;;;;;;;;;;;;;;;;5072414;28;19912;-62
2023/09/29 11:04:57;;;;;;;;;;;;;;;;;;5073930;28;19916;-62
2023/09/29 11:07:23;;;;;;;;;;;;;;;;;;5070300;28;20675;-62
2023/09/29 11:09:48;;;;;;;;;;;;;;;;;;5084700;28;20397;-65
2023/09/29 11:12:13;;;;;;;;;;;;;;;;;;5082301;28;20007;-64
2023/09/29 11:14:39;;;;;;;;;;;;;;;;;;5081333;28;20010;-64
2023/09/29 11:17:04;;;;;;;;;;;;;;;;;;5080105;28;19916;-64
2023/09/29 11:19:30;;;;;;;;;;;;;;;;;;5080718;28;19916;-65
2023/09/29 11:21:59;;;;;;;;;;;;;;;;;;5082819;28;19912;-65
2023/09/29 11:24:24;;;;;;;;;;;;;;;;;;5083833;28;20580;-65
2023/09/29 11:26:51;;;;;;;;;;;;;;;;;;5080996;28;19919;-63
2023/09/29 11:29:16;;;;;;;;;;;;;;;;;;5082430;28;19977;-63
2023/09/29 11:31:42;;;;;;;;;;;;;;;;;;5082080;28;19913;-65
2023/09/29 11:34:08;;;;;;;;;;;;;;;;;;5081370;28;19920;-64
2023/09/29 11:36:34;;;;;;;;;;;;;;;;;;5081616;28;19924;-59
2023/09/29 11:39:00;;;;;;;;;;;;;;;;;;5092306;28;19912;-60
2023/09/29 11:41:26;;;;;;;;;;;;;;;;;;5092174;28;19915;-60
2023/09/29 11:43:51;;;;;;;;;;;;;;;;;;5090927;28;20373;-61
2023/09/29 11:46:16;;;;;;;;;;;;;;;;;;5091825;28;20315;-61
2023/09/29 11:48:42;;;;;;;;;;;;;;;;;;5094692;28;19919;-62
2023/09/29 11:51:08;;;;;;;;;;;;;;;;;;5091913;28;20428;-61
2023/09/29 11:53:34;;;;;;;;;;;;;;;;;;5092342;28;19923;-61
2023/09/29 11:55:59;;;;;;;;;;;;;;;;;;5091598;28;20312;-63
2023/09/29 11:58:24;;;;;;;;;;;;;;;;;;5090914;28;20405;-62
2023/09/29 12:00:50;;;;;;;;;;;;;;;;;;5091687;28;19931;-60
2023/09/29 12:03:17;;;;;;;;;;;;;;;;;;5087768;28;19922;-63
2023/09/29 12:05:46;;;;;;;;;;;;;;;;;;5082115;28;19912;-63
2023/09/29 12:08:11;;;;;;;;;;;;;;;;;;5081455;28;20022;-65
2023/09/29 12:10:36;;;;;;;;;;;;;;;;;;5082587;28;19992;-65
2023/09/29 12:13:04;;;;;;;;;;;;;;;;;;5082866;28;19917;-64
2023/09/29 12:15:29;;;;;;;;;;;;;;;;;;5081163;28;20336;-65
2023/09/29 12:17:55;;;;;;;;;;;;;;;;;;5081743;28;19912;-65
2023/09/29 12:20:21;;;;;;;;;;;;;;;;;;5082391;28;20297;-65
2023/09/29 12:22:46;;;;;;;;;;;;;;;;;;5080553;28;19916;-65
2023/09/29 12:25:12;;;;;;;;;;;;;;;;;;5081073;28;19957;-66
2023/09/29 12:27:38;;;;;;;;;;;;;;;;;;5079874;28;19923;-65
2023/09/29 12:30:04;;;;;;;;;;;;;;;;;;5080718;28;19923;-65
2023/09/29 12:32:31;;;;;;;;;;;;;;;;;;5080718;28;19913;-64
2023/09/29 12:34:57;;;;;;;;;;;;;;;;;;5089064;28;19935;-64
2023/09/29 12:37:22;;;;;;;;;;;;;;;;;;5086152;28;20296;-64
2023/09/29 12:39:49;;;;;;;;;;;;;;;;;;5089172;28;19929;-61
2023/09/29 12:42:15;;;;;;;;;;;;;;;;;;5090698;28;19916;-59
2023/09/29 12:44:41;;;;;;;;;;;;;;;;;;5091335;28;20404;-61
2023/09/29 12:47:06;;;;;;;;;;;;;;;;;;5090603;28;19938;-62
2023/09/29 12:49:32;;;;;;;;;;;;;;;;;;5090261;28;20018;-62
2023/09/29 12:51:57;;;;;;;;;;;;;;;;;;5091913;28;20312;-60
2023/09/29 12:54:22;;;;;;;;;;;;;;;;;;5091522;28;19922;-62
2023/09/29 12:56:48;;;;;;;;;;;;;;;;;;5090076;28;19916;-62
2023/09/29 12:59:14;;;;;;;;;;;;;;;;;;5091327;28;20027;-62
2023/09/29 13:01:39;;;;;;;;;;;;;;;;;;5088716;28;20369;-60
2023/09/29 13:04:04;;;;;;;;;;;;;;;;;;5091897;28;19919;-62
2023/09/29 13:06:30;;;;;;;;;;;;;;;;;;5091238;28;19915;-61
2023/09/29 13:08:56;;;;;;;;;;;;;;;;;;5091429;28;19946;-62
2023/09/29 13:11:21;;;;;;;;;;;;;;;;;;5089143;28;19924;-62
2023/09/29 13:13:47;;;;;;;;;;;;;;;;;;5071056;28;19912;-60
2023/09/29 13:16:13;;;;;;;;;;;;;;;;;;5071178;28;19951;-60
2023/09/29 13:18:39;;;;;;;;;;;;;;;;;;5080185;28;19912;-64
2023/09/29 13:21:04;;;;;;;;;;;;;;;;;;5083717;28;19912;-61
2023/09/29 13:23:30;;;;;;;;;;;;;;;;;;5071174;28;20034;-62
2023/09/29 13:25:55;;;;;;;;;;;;;;;;;;5070390;28;19912;-62
2023/09/29 13:28:20;;;;;;;;;;;;;;;;;;5070863;28;20389;-60
2023/09/29 13:30:46;;;;;;;;;;;;;;;;;;5070773;28;19922;-62
2023/09/29 13:33:11;;;;;;;;;;;;;;;;;;5070050;28;19916;-62
2023/09/29 13:35:37;;;;;;;;;;;;;;;;;;5070876;28;19913;-63
2023/09/29 13:38:04;;;;;;;;;;;;;;;;;;5069831;28;19924;-61
2023/09/29 13:40:29;;;;;;;;;;;;;;;;;;5070552;28;19913;-62
2023/09/29 13:42:55;;;;;;;;;;;;;;;;;;5070179;28;19917;-62
2023/09/29 13:45:20;;;;;;;;;;;;;;;;;;5070845;28;19958;-61
2023/09/29 13:47:45;;;;;;;;;;;;;;;;;;5069851;28;19916;-61
2023/09/29 13:50:11;;;;;;;;;;;;;;;;;;5072885;28;19912;-62
2023/09/29 13:52:36;;;;;;;;;;;;;;;;;;5078654;28;19923;-61
2023/09/29 13:55:02;;;;;;;;;;;;;;;;;;5085709;28;19967;-62
2023/09/29 13:57:28;;;;;;;;;;;;;;;;;;5086463;28;19920;-61
2023/09/29 13:59:54;;;;;;;;;;;;;;;;;;5093699;28;20305;-65
2023/09/29 14:02:20;;;;;;;;;;;;;;;;;;5092860;28;19964;-61
2023/09/29 14:04:45;;;;;;;;;;;;;;;;;;5092450;28;19947;-63
2023/09/29 14:07:10;;;;;;;;;;;;;;;;;;5092907;28;20009;-61
2023/09/29 14:09:36;;;;;;;;;;;;;;;;;;5093612;28;20345;-62
2023/09/29 14:12:01;;;;;;;;;;;;;;;;;;5093122;28;20378;-62
2023/09/29 14:14:26;;;;;;;;;;;;;;;;;;5093201;28;19915;-60
2023/09/29 14:16:52;;;;;;;;;;;;;;;;;;5094274;28;20006;-61
2023/09/29 14:19:17;;;;;;;;;;;;;;;;;;5094067;28;20430;-60
2023/09/29 14:21:42;;;;;;;;;;;;;;;;;;5094343;28;20451;-61
2023/09/29 14:24:08;;;;;;;;;;;;;;;;;;5093932;28;19911;-62
2023/09/29 14:26:33;;;;;;;;;;;;;;;;;;5092027;28;19920;-61
2023/09/29 14:28:58;;;;;;;;;;;;;;;;;;5086962;28;20405;-61
2023/09/29 14:31:24;;;;;;;;;;;;;;;;;;5090913;28;19939;-62
2023/09/29 14:33:49;;;;;;;;;;;;;;;;;;5082297;28;20400;-62
2023/09/29 14:36:14;;;;;;;;;;;;;;;;;;5083911;28;20412;-60
2023/09/29 14:38:40;;;;;;;;;;;;;;;;;;5083750;28;19920;-61
2023/09/29 14:41:05;;;;;;;;;;;;;;;;;;5082152;28;19917;-62
2023/09/29 14:43:30;;;;;;;;;;;;;;;;;;5084204;28;19920;-62
2023/09/29 14:45:56;;;;;;;;;;;;;;;;;;5083227;28;19920;-61
2023/09/29 14:48:21;;;;;;;;;;;;;;;;;;5074628;28;20351;-61
2023/09/29 14:50:46;;;;;;;;;;;;;;;;;;5073733;28;19915;-62
2023/09/29 14:53:12;;;;;;;;;;;;;;;;;;5082156;28;19916;-62
2023/09/29 14:55:38;;;;;;;;;;;;;;;;;;5092448;28;19919;-62
2023/09/29 14:58:03;;;;;;;;;;;;;;;;;;5092503;28;19920;-64
2023/09/29 15:00:29;;;;;;;;;;;;;;;;;;5085723;28;20399;-62
2023/09/29 15:02:54;;;;;;;;;;;;;;;;;;5081437;28;19955;-62
2023/09/29 15:05:20;;;;;;;;;;;;;;;;;;5093370;28;19912;-63
2023/09/29 15:07:45;;;;;;;;;;;;;;;;;;5093742;28;20014;-62
2023/09/29 15:10:10;;;;;;;;;;;;;;;;;;5088759;28;19946;-65
2023/09/29 15:12:36;;;;;;;;;;;;;;;;;;5078813;28;19921;-62
2023/09/29 15:15:01;;;;;;;;;;;;;;;;;;5073055;28;19912;-62
2023/09/29 15:17:30;;;;;;;;;;;;;;;;;;5072855;28;19916;-61
2023/09/29 15:19:56;;;;;;;;;;;;;;;;;;5081061;28;19918;-60
2023/09/29 15:22:25;;;;;;;;;;;;;;;;;;5082613;28;19960;-63
2023/09/29 15:24:50;;;;;;;;;;;;;;;;;;5090150;28;19954;-61
2023/09/29 15:27:16;;;;;;;;;;;;;;;;;;5093111;28;19940;-62
2023/09/29 15:29:41;;;;;;;;;;;;;;;;;;5093066;28;20401;-62
2023/09/29 15:32:06;;;;;;;;;;;;;;;;;;5089962;28;19916;-62
2023/09/29 15:34:34;;;;;;;;;;;;;;;;;;5082392;28;19916;-65
2023/09/29 15:37:00;;;;;;;;;;;;;;;;;;5083356;28;19916;-66
2023/09/29 15:39:26;;;;;;;;;;;;;;;;;;5081145;28;20053;-64
2023/09/29 15:41:51;;;;;;;;;;;;;;;;;;5082772;28;20002;-66
2023/09/29 15:44:17;;;;;;;;;;;;;;;;;;5082107;28;19928;-65
2023/09/29 15:46:44;;;;;;;;;;;;;;;;;;5080384;28;20320;-64
2023/09/29 15:49:12;;;;;;;;;;;;;;;;;;5080214;28;19943;-62
2023/09/29 15:51:37;;;;;;;;;;;;;;;;;;5081547;28;19985;-63
2023/09/29 15:54:04;;;;;;;;;;;;;;;;;;5082710;28;20292;-61
2023/09/29 15:56:30;;;;;;;;;;;;;;;;;;5081537;28;19923;-59
2023/09/29 15:58:55;;;;;;;;;;;;;;;;;;5081415;28;19911;-62
2023/09/29 16:01:21;;;;;;;;;;;;;;;;;;5082802;28;19920;-64
2023/09/29 16:03:48;;;;;;;;;;;;;;;;;;5078428;28;19919;-61
2023/09/29 16:06:13;;;;;;;;;;;;;;;;;;5072284;28;19963;-64
2023/09/29 16:08:39;;;;;;;;;;;;;;;;;;5071743;28;19978;-63
2023/09/29 16:11:04;;;;;;;;;;;;;;;;;;5101510;28;19912;-62
2023/09/29 16:13:33;;;;;;;;;;;;;;;;;;5088808;28;19911;-62
2023/09/29 16:15:59;;;;;;;;;;;;;;;;;;5082176;28;19952;-62
2023/09/29 16:18:24;;;;;;;;;;;;;;;;;;5077825;28;19955;-61
2023/09/29 16:20:49;;;;;;;;;;;;;;;;;;5082203;28;20304;-62
2023/09/29 16:23:14;;;;;;;;;;;;;;;;;;5082094;28;19921;-62
2023/09/29 16:25:41;;;;;;;;;;;;;;;;;;5080584;28;19912;-61
2023/09/29 16:28:07;;;;;;;;;;;;;;;;;;5080783;28;19946;-63
2023/09/29 16:30:33;;;;;;;;;;;;;;;;;;5081507;28;20327;-63
2023/09/29 16:32:58;;;;;;;;;;;;;;;;;;5080567;28;19916;-62
2023/09/29 16:35:23;;;;;;;;;;;;;;;;;;5078906;28;19916;-62